Pilot Mound, Minnesota
Current Conditions -  °F | °C
As of 11:35 AM on Wednesday 26 Nov 2014 (Local Time) from KFKA Reporting Station
Overcast Overcast  
Wind Chill: 16°   Ceiling: 4400
Heat Index: 23°   Visibility: 7mi
Dew Point: 19°   Wind: 6mph
Humidity: 84%   Direction: 60°ENE
Pressure: 30.09"   Gusts: NA
Location:  43.8233°N, 92.1103°W
Report Text: KFKA 261735Z AUTO 06005KT 7SM SCT038 OVC044 M05/M07 A3009 RMK AO2 T10481072
Loading
Personal Weather Stations






























Interactive Weather Map New forecast layout! Learn more

10-Day Weather Forecast

Advertisements
Track Severe Weather on mobile